• Join FlightAware (Why Join?)
  • Login
  • US Flag 
05:19PM EDT


 

Airport Tracker/Info


-or-


 

Live Flight TrackerFlight Track Log ✈ SKW4540 ✈ 04-Sep-2013 ✈ KMSP - KRST

Flight Track Log - Related Links

Times and Time Zones

All times are in EDT time to prevent confusion due to time zone crossing. See the SKW4540 flight status page for this flight to view local times or setup timezone preferences in your user account.

Time Position Orientation Groundspeed Altitude Reporting Facility
EDT Latitude Longitude Course Direction KTS MPH feet Rate Location/Type
12:50PM 44.9000 -93.2833 172° South 199 229 2,600  Level Minneapolis TRACON
12:51PM 44.8667 -93.3833 245° Southwest 260 299 5,600 2,280 Climbing Minneapolis TRACON
12:52PM 44.6082 -93.0161 155° Southeast  Level Estimated
12:52PM 44.8167 -93.4333 215° Southwest 288 331 7,200  Level Minneapolis TRACON
12:53PM 44.5050 -93.0254 184° South  Level FlightAware Approximate
12:53PM 44.7500 -93.4667 200° South 285 328 9,400  Level Minneapolis TRACON
12:54PM 44.4177 -92.9477 151° Southeast  Level Estimated
12:54PM 44.6667 -93.4000 150° Southeast 321 369 11,800  Level Minneapolis TRACON
12:54PM 44.6331 -93.3667 145° Southeast 323 372 12,900 720 Climbing Minneapolis Center
12:55PM 44.3154 -92.9267 172° South  Level FlightAware Approximate
12:55PM 44.5581 -93.2872 143° Southeast 342 394 13,000  Level Minneapolis Center
12:56PM 44.4794 -93.2036 143° Southeast 357 411 13,000 -60 Level Minneapolis Center
12:57PM 44.4011 -93.1203 143° Southeast 357 411 12,900 -1,200 Descending Minneapolis Center
12:59PM 44.3128 -93.0294 144° Southeast 331 381 10,500 -1,440 Descending Minneapolis Center
01:00PM 44.2458 -92.9572 142° Southeast 314 361 10,000 -660 Descending Minneapolis Center
01:01PM 44.1831 -92.8678 134° Southeast 303 349 9,200 -1,260 Descending Minneapolis Center
01:02PM 44.1292 -92.7817 131° Southeast 298 343 7,400 -1,800 Descending Minneapolis Center
01:03PM 44.0747 -92.6931 131° Southeast 282 325 5,500 -1,680 Descending Minneapolis Center
01:04PM 44.0253 -92.6147 131° Southeast 275 316 4,000 -1,020 Descending Minneapolis Center
01:05PM 43.9914 -92.5222 117° Southeast 250 288 3,500 -540 Descending Minneapolis Center
01:06PM 43.9572 -92.4556 125° Southeast 210 242 2,900 -1,020 Descending Minneapolis Center
01:07PM 43.9217 -92.4897 215° Southwest 146 168 1,500 -780 Descending Minneapolis Center
01:08PM 43.8928 -92.5106 207° Southwest 141 162 1,300 -240 Descending Minneapolis Center